createdAt,value
2022-09-14T00:01:44.954Z,42.25
2022-09-14T00:04:16.741Z,43.23
2022-09-14T00:06:46.055Z,42.78
2022-09-14T00:09:17.259Z,42.27
2022-09-14T00:11:45.645Z,42.01
2022-09-14T00:14:16.492Z,41.86
2022-09-14T00:16:46.144Z,41.74
2022-09-14T00:19:20.293Z,41.74
2022-09-14T00:21:53.069Z,41.66
2022-09-14T00:24:21.637Z,41.66
2022-09-14T00:26:50.287Z,41.76
2022-09-14T00:29:20.941Z,41.68
2022-09-14T00:31:49.397Z,41.50
2022-09-14T00:34:19.173Z,41.68
2022-09-14T00:36:50.302Z,41.99
2022-09-14T00:39:23.603Z,41.85
2022-09-14T00:41:53.175Z,41.61
2022-09-14T00:45:02.685Z,41.45
2022-09-14T00:47:33.177Z,42.15
2022-09-14T00:50:04.411Z,42.30
2022-09-14T00:52:35.979Z,42.49
2022-09-14T00:55:08.770Z,42.45
2022-09-14T00:57:41.591Z,42.25
2022-09-14T01:00:15.230Z,42.07
2022-09-14T01:02:43.965Z,42.43
2022-09-14T01:05:13.560Z,42.33
2022-09-14T01:08:09.803Z,42.43
2022-09-14T01:10:51.687Z,42.31
2022-09-14T01:13:29.477Z,42.83
2022-09-14T01:16:08.853Z,42.50
2022-09-14T01:18:40.745Z,42.65
2022-09-14T01:21:13.641Z,43.18
2022-09-14T01:23:50.603Z,43.21
2022-09-14T01:27:00.125Z,42.85
2022-09-14T01:29:34.895Z,43.19
2022-09-14T01:32:09.692Z,43.51
2022-09-14T01:34:41.504Z,44.33
2022-09-14T01:37:14.673Z,44.37
2022-09-14T01:39:46.976Z,44.18
2022-09-14T01:42:18.212Z,44.16
2022-09-14T01:44:52.311Z,44.18
2022-09-14T01:47:27.137Z,44.26
2022-09-14T01:50:00.563Z,44.11
2022-09-14T01:52:35.049Z,43.82
2022-09-14T01:55:10.816Z,43.60
2022-09-14T01:57:45.540Z,43.98
2022-09-14T02:00:18.673Z,43.33
2022-09-14T02:02:51.007Z,43.60
2022-09-14T02:05:26.039Z,43.65
2022-09-14T02:07:55.388Z,43.87
2022-09-14T02:10:24.688Z,43.84
2022-09-14T02:12:53.409Z,43.72
2022-09-14T02:15:25.983Z,43.16
2022-09-14T02:17:55.504Z,43.06
2022-09-14T02:20:30.051Z,43.20
2022-09-14T02:22:58.600Z,43.32
2022-09-14T02:25:27.348Z,43.49
2022-09-14T02:27:55.841Z,43.70
2022-09-14T02:30:26.020Z,43.61
2022-09-14T02:33:09.139Z,43.35
2022-09-14T02:35:42.105Z,43.34
2022-09-14T02:38:19.455Z,43.66
2022-09-14T02:40:55.409Z,43.81
2022-09-14T02:43:34.515Z,44.12
2022-09-14T02:46:15.653Z,44.40
2022-09-14T02:48:51.296Z,44.45
2022-09-14T02:51:27.775Z,44.41
2022-09-14T02:54:02.667Z,44.67
2022-09-14T02:56:31.620Z,45.09
2022-09-14T02:59:00.204Z,45.41
2022-09-14T03:01:30.367Z,45.03
2022-09-14T03:03:58.839Z,44.99
2022-09-14T03:06:27.519Z,45.03
2022-09-14T03:08:55.892Z,45.21
2022-09-14T03:11:24.243Z,44.99
2022-09-14T03:13:52.741Z,44.89
2022-09-14T03:16:22.164Z,44.56
2022-09-14T03:18:52.053Z,44.40
2022-09-14T03:21:20.693Z,44.69
2022-09-14T03:23:52.017Z,44.19
2022-09-14T03:26:24.122Z,45.12
2022-09-14T03:28:53.797Z,44.73
2022-09-14T03:31:22.880Z,44.43
2022-09-14T03:33:56.819Z,44.23
2022-09-14T03:36:27.153Z,44.67
2022-09-14T03:38:58.579Z,44.63
2022-09-14T03:41:27.688Z,44.16
2022-09-14T03:43:55.999Z,44.21
2022-09-14T03:46:25.970Z,44.15
2022-09-14T03:48:57.082Z,44.45
2022-09-14T03:51:26.039Z,44.70
2022-09-14T03:53:54.753Z,44.75
2022-09-14T03:56:24.055Z,44.70
2022-09-14T03:58:52.482Z,44.26
2022-09-14T04:01:22.996Z,44.09
2022-09-14T04:03:52.527Z,43.92
2022-09-14T04:06:22.315Z,44.27
2022-09-14T04:08:50.688Z,43.85
2022-09-14T04:11:22.433Z,44.01
2022-09-14T04:13:51.613Z,43.98
2022-09-14T04:16:21.922Z,43.96
2022-09-14T04:18:50.758Z,44.22
2022-09-14T04:21:21.874Z,43.93
2022-09-14T04:24:13.933Z,43.93
2022-09-14T04:26:43.670Z,43.68
2022-09-14T04:29:13.063Z,43.18
2022-09-14T04:31:41.870Z,43.36
2022-09-14T04:34:12.792Z,43.30
2022-09-14T04:36:41.328Z,43.02
2022-09-14T04:39:14.012Z,43.16
2022-09-14T04:41:42.733Z,42.87
2022-09-14T04:44:11.850Z,42.90
2022-09-14T04:46:46.102Z,43.04
2022-09-14T04:49:16.659Z,42.65
2022-09-14T04:51:45.528Z,42.71
2022-09-14T04:54:17.489Z,42.88
2022-09-14T04:56:46.551Z,42.55
2022-09-14T04:59:16.390Z,42.19
2022-09-14T05:01:47.594Z,42.05
2022-09-14T05:04:17.060Z,42.22
2022-09-14T05:06:45.860Z,42.35
2022-09-14T05:09:17.237Z,41.99
2022-09-14T05:11:46.586Z,42.06
2022-09-14T05:14:15.757Z,41.95
2022-09-14T05:16:45.063Z,42.03
2022-09-14T05:19:15.511Z,41.85
2022-09-14T05:21:44.000Z,41.13
2022-09-14T05:24:16.783Z,40.87
2022-09-14T05:26:47.093Z,40.98
2022-09-14T05:29:17.997Z,40.78
2022-09-14T05:31:46.889Z,41.04
2022-09-14T05:34:17.216Z,40.74
2022-09-14T05:36:45.672Z,40.43
2022-09-14T05:39:17.770Z,40.47
2022-09-14T05:41:50.263Z,40.37
2022-09-14T05:44:19.140Z,40.43
2022-09-14T05:46:47.722Z,40.51
2022-09-14T05:49:16.185Z,40.32
2022-09-14T05:51:44.838Z,39.34
2022-09-14T05:54:13.460Z,40.29
2022-09-14T05:56:43.277Z,39.37
2022-09-14T05:59:12.133Z,40.12
2022-09-14T06:01:40.886Z,38.58
2022-09-14T06:04:12.351Z,38.25
2022-09-14T06:06:41.037Z,37.87
2022-09-14T06:09:09.568Z,38.00
2022-09-14T06:11:38.045Z,37.57
2022-09-14T06:14:08.484Z,37.68
2022-09-14T06:16:36.875Z,37.63
2022-09-14T06:19:05.785Z,37.84
2022-09-14T06:21:35.923Z,37.74
2022-09-14T06:24:05.170Z,37.41
2022-09-14T06:26:33.615Z,37.31
2022-09-14T06:29:02.341Z,36.98
2022-09-14T06:31:32.702Z,36.78
2022-09-14T06:34:01.214Z,36.00
2022-09-14T06:36:30.831Z,36.05
2022-09-14T06:39:01.340Z,35.71
2022-09-14T06:41:34.385Z,35.81
2022-09-14T06:44:03.366Z,35.77
2022-09-14T06:46:34.871Z,35.38
2022-09-14T06:49:05.907Z,36.87
2022-09-14T06:51:36.291Z,36.78
2022-09-14T06:54:06.361Z,36.59
2022-09-14T06:56:37.747Z,36.64
2022-09-14T06:59:08.050Z,36.35
2022-09-14T07:01:37.966Z,35.71
2022-09-14T07:04:06.822Z,35.47
2022-09-14T07:06:41.762Z,35.61
2022-09-14T07:09:10.184Z,35.60
2022-09-14T07:11:40.135Z,35.50
2022-09-14T07:14:09.537Z,34.88
2022-09-14T07:16:59.389Z,34.63
2022-09-14T07:19:28.045Z,33.35
2022-09-14T07:21:56.608Z,32.45
2022-09-14T07:24:25.091Z,34.40
2022-09-14T07:26:53.990Z,34.02
2022-09-14T07:29:23.064Z,34.39
2022-09-14T07:31:53.917Z,33.70
2022-09-14T07:34:25.531Z,33.65
2022-09-14T07:36:54.229Z,33.79
2022-09-14T07:39:22.654Z,33.25
2022-09-14T07:41:51.357Z,32.83
2022-09-14T07:44:19.891Z,32.78
2022-09-14T07:46:48.758Z,33.28
2022-09-14T07:49:18.484Z,31.78
2022-09-14T07:51:48.695Z,32.72
2022-09-14T07:54:18.967Z,32.89
2022-09-14T07:56:50.630Z,32.67
2022-09-14T07:59:36.445Z,31.52
2022-09-14T08:02:07.693Z,31.11
2022-09-14T08:04:36.937Z,31.30
2022-09-14T08:07:07.863Z,30.52
2022-09-14T08:09:36.513Z,29.83
2022-09-14T08:12:06.038Z,30.11
2022-09-14T08:14:34.699Z,29.73
2022-09-14T08:17:03.464Z,30.13
2022-09-14T08:19:31.843Z,30.29
2022-09-14T08:22:00.148Z,30.27
2022-09-14T08:24:30.059Z,30.18
2022-09-14T08:26:58.377Z,28.15
2022-09-14T08:29:27.137Z,27.97
2022-09-14T08:31:55.837Z,28.26
2022-09-14T08:34:24.292Z,28.57
2022-09-14T08:36:52.700Z,27.89
2022-09-14T08:39:21.806Z,27.93
2022-09-14T08:41:55.335Z,27.77
2022-09-14T08:44:28.442Z,27.62
2022-09-14T08:47:03.254Z,27.80
2022-09-14T08:49:47.980Z,27.47
2022-09-14T08:52:25.319Z,28.02
2022-09-14T08:54:56.267Z,28.06
2022-09-14T08:57:34.739Z,26.22
2022-09-14T09:00:11.412Z,26.00
2022-09-14T09:03:10.453Z,24.76
2022-09-14T09:05:47.920Z,25.03
2022-09-14T09:08:23.097Z,24.42
2022-09-14T09:10:54.887Z,25.01
2022-09-14T09:13:30.281Z,25.26
2022-09-14T09:16:01.909Z,25.44
2022-09-14T09:18:38.272Z,25.14
2022-09-14T09:21:11.745Z,25.08
2022-09-14T09:23:42.335Z,25.49
2022-09-14T09:26:17.973Z,25.10
2022-09-14T09:28:50.808Z,25.96
2022-09-14T09:31:23.955Z,26.02
2022-09-14T09:34:17.990Z,27.24
2022-09-14T09:36:49.570Z,26.80
2022-09-14T09:39:18.478Z,26.94
2022-09-14T09:41:52.637Z,27.11
2022-09-14T09:44:22.392Z,27.52
2022-09-14T09:46:54.572Z,28.00
2022-09-14T09:49:26.360Z,28.58
2022-09-14T09:51:57.246Z,28.74
2022-09-14T09:54:30.216Z,28.71
2022-09-14T09:57:01.786Z,28.82
2022-09-14T09:59:35.331Z,29.06
2022-09-14T10:02:24.205Z,28.95
2022-09-14T10:05:01.896Z,28.24
2022-09-14T10:07:32.840Z,28.41
2022-09-14T10:10:04.161Z,28.46
2022-09-14T10:12:33.683Z,27.18
2022-09-14T10:15:16.368Z,27.31
2022-09-14T10:18:05.728Z,28.19
2022-09-14T10:20:34.598Z,27.23
2022-09-14T10:23:22.820Z,27.45
2022-09-14T10:25:52.646Z,27.14
2022-09-14T10:28:28.089Z,25.88
2022-09-14T10:31:03.206Z,24.28
2022-09-14T10:33:33.172Z,24.71
2022-09-14T10:36:10.102Z,24.95
2022-09-14T10:38:43.134Z,24.82
2022-09-14T10:41:24.466Z,25.17
2022-09-14T10:44:22.618Z,24.37
2022-09-14T10:47:04.886Z,23.91
2022-09-14T10:49:49.585Z,23.30
2022-09-14T10:52:25.567Z,22.89
2022-09-14T10:55:08.626Z,23.22
2022-09-14T10:57:45.733Z,23.83
2022-09-14T11:00:18.719Z,22.55
2022-09-14T11:03:04.908Z,22.70
2022-09-14T11:05:38.597Z,23.59
2022-09-14T11:08:16.319Z,21.79
2022-09-14T11:11:08.074Z,20.71
2022-09-14T11:13:50.848Z,21.03
2022-09-14T11:16:37.928Z,20.63
2022-09-14T11:19:23.444Z,21.03
2022-09-14T11:22:02.870Z,20.86
2022-09-14T11:24:39.625Z,20.52
2022-09-14T11:27:16.669Z,21.03
2022-09-14T11:29:50.894Z,20.87
2022-09-14T11:32:23.225Z,21.13
2022-09-14T11:34:58.175Z,21.21
2022-09-14T11:37:33.949Z,20.94
2022-09-14T11:40:10.319Z,20.88
2022-09-14T11:42:47.107Z,20.94
2022-09-14T11:45:21.175Z,21.52
2022-09-14T11:47:59.000Z,21.34
2022-09-14T11:50:31.672Z,21.69
2022-09-14T11:53:17.488Z,21.14
2022-09-14T11:55:48.676Z,21.00
2022-09-14T11:58:22.170Z,21.09
2022-09-14T12:01:25.117Z,20.59
2022-09-14T12:04:14.887Z,21.20
2022-09-14T12:06:51.432Z,20.57
2022-09-14T12:09:43.942Z,19.78
2022-09-14T12:12:41.529Z,19.54
2022-09-14T12:15:33.241Z,19.25
2022-09-14T12:18:24.378Z,20.09
2022-09-14T12:21:02.715Z,20.33
2022-09-14T12:23:42.974Z,20.17
2022-09-14T12:26:33.810Z,19.67
2022-09-14T12:29:32.445Z,19.82
2022-09-14T12:32:07.192Z,19.19
2022-09-14T12:34:35.806Z,19.47
2022-09-14T12:37:32.020Z,19.49
2022-09-14T12:40:35.357Z,19.84
2022-09-14T12:43:47.025Z,20.05
2022-09-14T12:46:38.858Z,19.93
2022-09-14T12:49:29.410Z,19.97
2022-09-14T12:52:03.564Z,19.97
2022-09-14T12:54:44.008Z,20.53
2022-09-14T12:57:30.207Z,20.09
2022-09-14T13:00:13.044Z,21.19
2022-09-14T13:03:08.971Z,21.08
2022-09-14T13:05:37.909Z,20.54
2022-09-14T13:08:12.013Z,20.73
2022-09-14T13:10:46.942Z,20.77
2022-09-14T13:13:20.308Z,20.93
2022-09-14T13:15:55.013Z,21.15
2022-09-14T13:18:30.769Z,21.74
2022-09-14T13:21:02.167Z,21.57
2022-09-14T13:23:34.011Z,20.73
2022-09-14T13:26:10.851Z,20.84
2022-09-14T13:28:44.775Z,21.57
2022-09-14T13:31:15.426Z,22.53
2022-09-14T13:33:50.176Z,22.58
2022-09-14T13:36:22.650Z,21.91
2022-09-14T13:38:52.218Z,22.17
2022-09-14T13:41:23.373Z,22.14
2022-09-14T13:43:57.087Z,22.46
2022-09-14T13:46:27.979Z,21.93
2022-09-14T13:48:57.484Z,21.94
2022-09-14T13:51:27.934Z,22.09
2022-09-14T13:53:58.302Z,22.77
2022-09-14T13:56:31.417Z,22.46
2022-09-14T13:59:19.586Z,22.22
2022-09-14T14:01:55.398Z,22.58
2022-09-14T14:04:37.391Z,22.37
2022-09-14T14:07:16.698Z,21.92
2022-09-14T14:09:50.728Z,22.02
2022-09-14T14:12:25.300Z,22.33
2022-09-14T14:14:57.607Z,22.50
2022-09-14T14:17:34.473Z,22.95
2022-09-14T14:20:32.090Z,22.75
2022-09-14T14:23:16.630Z,23.20
2022-09-14T14:25:48.630Z,22.99
2022-09-14T14:28:20.867Z,22.56
2022-09-14T14:30:51.892Z,23.10
2022-09-14T14:33:22.661Z,23.19
2022-09-14T14:35:53.851Z,23.98
2022-09-14T14:38:23.356Z,23.81
2022-09-14T14:40:54.849Z,23.86
2022-09-14T14:43:26.262Z,24.03
2022-09-14T14:45:59.107Z,24.32
2022-09-14T14:48:28.693Z,24.48
2022-09-14T14:50:57.161Z,24.25
2022-09-14T14:53:26.484Z,24.54
2022-09-14T14:55:55.175Z,24.50
2022-09-14T14:58:25.235Z,24.69
2022-09-14T15:00:54.636Z,24.82
2022-09-14T15:03:24.796Z,24.74
2022-09-14T15:05:53.287Z,24.94
2022-09-14T15:08:21.811Z,24.94
2022-09-14T15:10:57.257Z,25.07
2022-09-14T15:13:26.015Z,25.33
2022-09-14T15:15:54.665Z,25.34
2022-09-14T15:18:24.506Z,25.60
2022-09-14T15:20:53.907Z,25.72
2022-09-14T15:23:22.530Z,25.71
2022-09-14T15:25:52.186Z,26.18
2022-09-14T15:28:20.852Z,26.28
2022-09-14T15:30:49.536Z,26.11
2022-09-14T15:33:18.022Z,27.19
2022-09-14T15:35:55.507Z,27.74
2022-09-14T15:38:24.276Z,27.47
2022-09-14T15:40:52.942Z,27.62
2022-09-14T15:43:21.417Z,27.53
2022-09-14T15:45:50.063Z,28.66
2022-09-14T15:48:19.856Z,29.04
2022-09-14T15:50:50.240Z,28.95
2022-09-14T15:53:19.116Z,28.98
2022-09-14T15:55:52.608Z,29.76
2022-09-14T15:58:31.676Z,29.89
2022-09-14T16:01:09.290Z,29.41
2022-09-14T16:03:38.276Z,29.20
2022-09-14T16:06:08.756Z,29.36
2022-09-14T16:08:37.489Z,29.33
2022-09-14T16:11:08.037Z,28.98
2022-09-14T16:13:37.519Z,29.29
2022-09-14T16:16:09.428Z,30.91
2022-09-14T16:18:38.947Z,30.17
2022-09-14T16:21:12.374Z,29.72
2022-09-14T16:23:44.882Z,29.90
2022-09-14T16:26:15.506Z,29.64
2022-09-14T16:28:47.949Z,29.97
2022-09-14T16:31:20.508Z,31.18
2022-09-14T16:33:55.710Z,29.41
2022-09-14T16:36:28.113Z,30.21
2022-09-14T16:39:00.529Z,30.48
2022-09-14T16:41:30.057Z,30.04
2022-09-14T16:44:00.273Z,29.70
2022-09-14T16:46:44.160Z,29.84
2022-09-14T16:49:16.848Z,30.35
2022-09-14T16:51:49.190Z,30.90
2022-09-14T16:54:19.766Z,31.16
2022-09-14T16:56:48.607Z,31.05
2022-09-14T16:59:20.579Z,31.23
2022-09-14T17:01:54.275Z,31.43
2022-09-14T17:04:25.085Z,31.88
2022-09-14T17:07:00.668Z,32.18
2022-09-14T17:09:34.383Z,32.37
2022-09-14T17:12:04.893Z,32.88
2022-09-14T17:14:35.835Z,32.95
2022-09-14T17:17:17.985Z,33.13
2022-09-14T17:19:58.064Z,33.88
2022-09-14T17:22:30.848Z,34.35
2022-09-14T17:25:04.497Z,34.97
2022-09-14T17:27:35.485Z,34.63
2022-09-14T17:30:18.254Z,34.81
2022-09-14T17:32:46.906Z,34.43
2022-09-14T17:35:19.825Z,34.45
2022-09-14T17:37:50.124Z,34.74
2022-09-14T17:40:18.851Z,34.91
2022-09-14T17:42:47.340Z,35.29
2022-09-14T17:45:16.074Z,34.80
2022-09-14T17:47:44.515Z,35.12
2022-09-14T17:50:13.196Z,35.36
2022-09-14T17:52:41.906Z,35.44
2022-09-14T17:55:11.892Z,35.63
2022-09-14T17:57:42.650Z,36.10
2022-09-14T18:00:12.513Z,36.07
2022-09-14T18:02:41.094Z,36.10
2022-09-14T18:05:09.959Z,36.29
2022-09-14T18:07:38.917Z,36.47
2022-09-14T18:10:08.357Z,36.54
2022-09-14T18:12:39.779Z,36.13
2022-09-14T18:15:09.463Z,35.98
2022-09-14T18:17:38.415Z,36.38
2022-09-14T18:20:09.259Z,36.50
2022-09-14T18:22:38.235Z,36.45
2022-09-14T18:25:08.331Z,36.69
2022-09-14T18:27:38.462Z,36.83
2022-09-14T18:30:08.555Z,37.11
2022-09-14T18:32:39.121Z,36.63
2022-09-14T18:35:09.449Z,36.70
2022-09-14T18:37:38.117Z,36.64
2022-09-14T18:40:07.768Z,36.79
2022-09-14T18:42:36.571Z,37.24
2022-09-14T18:45:07.442Z,36.56
2022-09-14T18:47:36.017Z,37.28
2022-09-14T18:50:05.952Z,37.75
2022-09-14T18:52:34.427Z,37.46
2022-09-14T18:55:02.965Z,37.01
2022-09-14T18:57:31.726Z,36.94
2022-09-14T19:00:00.273Z,36.54
2022-09-14T19:02:30.202Z,36.82
2022-09-14T19:04:59.285Z,36.49
2022-09-14T19:07:28.049Z,36.42
2022-09-14T19:09:58.584Z,36.38
2022-09-14T19:12:27.608Z,36.76
2022-09-14T19:14:56.853Z,37.02
2022-09-14T19:17:25.913Z,37.14
2022-09-14T19:19:55.968Z,36.57
2022-09-14T19:22:24.353Z,36.45
2022-09-14T19:24:53.238Z,37.12
2022-09-14T19:27:21.864Z,37.72
2022-09-14T19:29:50.308Z,38.20
2022-09-14T19:32:19.388Z,37.91
2022-09-14T19:34:49.640Z,38.00
2022-09-14T19:37:24.182Z,37.37
2022-09-14T19:39:53.463Z,37.53
2022-09-14T19:42:24.406Z,37.22
2022-09-14T19:44:53.094Z,37.29
2022-09-14T19:47:21.802Z,37.56
2022-09-14T19:49:50.262Z,37.39
2022-09-14T19:52:18.981Z,37.42
2022-09-14T19:54:49.129Z,37.15
2022-09-14T19:57:17.614Z,38.28
2022-09-14T19:59:46.174Z,37.97
2022-09-14T20:02:15.056Z,37.91
2022-09-14T20:04:43.543Z,38.01
2022-09-14T20:07:12.552Z,38.64
2022-09-14T20:09:41.289Z,38.39
2022-09-14T20:12:11.018Z,37.97
2022-09-14T20:14:39.538Z,38.15
2022-09-14T20:17:08.472Z,37.51
2022-09-14T20:19:39.253Z,37.47
2022-09-14T20:22:07.708Z,37.69
2022-09-14T20:24:36.527Z,37.55
2022-09-14T20:27:05.446Z,38.03
2022-09-14T20:29:35.992Z,38.30
2022-09-14T20:32:06.440Z,38.13
2022-09-14T20:34:35.535Z,38.18
2022-09-14T20:37:04.431Z,38.08
2022-09-14T20:39:35.998Z,37.71
2022-09-14T20:42:04.463Z,37.88
2022-09-14T20:44:33.184Z,38.07
2022-09-14T20:47:03.433Z,38.72
2022-09-14T20:49:32.335Z,38.39
2022-09-14T20:52:02.836Z,38.92
2022-09-14T20:54:31.558Z,39.18
2022-09-14T20:57:04.487Z,39.36
2022-09-14T20:59:33.563Z,39.49
2022-09-14T21:02:05.542Z,39.52
2022-09-14T21:04:35.960Z,39.76
2022-09-14T21:07:04.634Z,39.62
2022-09-14T21:09:33.130Z,39.42
2022-09-14T21:12:01.941Z,39.33
2022-09-14T21:14:31.068Z,39.39
2022-09-14T21:16:59.788Z,39.70
2022-09-14T21:19:30.353Z,39.92
2022-09-14T21:21:59.193Z,40.03
2022-09-14T21:24:28.007Z,40.20
2022-09-14T21:26:57.585Z,39.94
2022-09-14T21:29:26.064Z,40.07
2022-09-14T21:31:54.783Z,40.13
2022-09-14T21:34:23.534Z,40.31
2022-09-14T21:36:54.031Z,40.13
2022-09-14T21:39:28.080Z,40.48
2022-09-14T21:41:59.336Z,40.37
2022-09-14T21:44:32.235Z,40.31
2022-09-14T21:47:01.494Z,40.41
2022-09-14T21:49:30.471Z,40.26
2022-09-14T21:52:00.281Z,40.50
2022-09-14T21:54:29.134Z,40.39
2022-09-14T21:56:57.859Z,40.62
2022-09-14T21:59:26.398Z,40.20
2022-09-14T22:01:55.473Z,41.10
2022-09-14T22:04:26.180Z,40.75
2022-09-14T22:06:55.098Z,40.50
2022-09-14T22:09:28.296Z,40.57
2022-09-14T22:11:57.561Z,40.92
2022-09-14T22:14:28.294Z,40.87
2022-09-14T22:16:56.840Z,40.88
2022-09-14T22:19:28.703Z,40.57
2022-09-14T22:21:57.703Z,40.22
2022-09-14T22:24:36.355Z,40.09
2022-09-14T22:27:07.857Z,40.22
2022-09-14T22:29:36.749Z,40.15
2022-09-14T22:32:11.262Z,40.11
2022-09-14T22:34:41.937Z,40.02
2022-09-14T22:37:10.465Z,39.68
2022-09-14T22:39:41.828Z,40.02
2022-09-14T22:42:10.425Z,39.92
2022-09-14T22:44:39.112Z,39.91
2022-09-14T22:47:08.066Z,39.70
2022-09-14T22:49:36.509Z,39.34
2022-09-14T22:52:05.073Z,39.32
2022-09-14T22:54:34.060Z,39.32
2022-09-14T22:57:03.903Z,39.22
2022-09-14T22:59:32.911Z,39.38
2022-09-14T23:02:01.521Z,40.17
2022-09-14T23:04:31.134Z,39.75
2022-09-14T23:07:01.123Z,39.64
2022-09-14T23:09:29.996Z,39.70
2022-09-14T23:11:58.253Z,39.72
2022-09-14T23:14:28.202Z,39.73
2022-09-14T23:16:56.877Z,39.63
2022-09-14T23:19:25.260Z,39.64
2022-09-14T23:21:53.688Z,39.90
2022-09-14T23:24:22.404Z,39.62
2022-09-14T23:26:50.721Z,39.39
2022-09-14T23:29:19.118Z,39.77
2022-09-14T23:31:49.073Z,39.53
2022-09-14T23:34:18.007Z,39.97
2022-09-14T23:36:46.325Z,39.79
2022-09-14T23:39:14.926Z,39.28
2022-09-14T23:41:43.434Z,39.60
2022-09-14T23:44:12.803Z,38.84
2022-09-14T23:46:41.685Z,38.98
2022-09-14T23:49:12.232Z,38.75
2022-09-14T23:51:41.913Z,38.64
2022-09-14T23:54:11.617Z,38.49
2022-09-14T23:56:40.185Z,38.96
2022-09-14T23:59:08.710Z,38.51
